createdAt,value
2023-02-13T00:00:20.106Z,101213.69
2023-02-13T00:02:46.734Z,101208.41
2023-02-13T00:05:13.378Z,101211.84
2023-02-13T00:07:39.982Z,101208.41
2023-02-13T00:10:07.845Z,101209.94
2023-02-13T00:12:34.969Z,101204.69
2023-02-13T00:15:01.942Z,101212.50
2023-02-13T00:17:28.547Z,101209.06
2023-02-13T00:19:55.134Z,101208.28
2023-02-13T00:22:21.694Z,101199.69
2023-02-13T00:24:48.219Z,101201.34
2023-02-13T00:27:14.752Z,101202.97
2023-02-13T00:29:41.298Z,101204.91
2023-02-13T00:32:08.043Z,101202.22
2023-02-13T00:34:34.854Z,101198.88
2023-02-13T00:37:03.220Z,101199.66
2023-02-13T00:39:29.866Z,101204.75
2023-02-13T00:41:56.484Z,101196.03
2023-02-13T00:44:23.147Z,101198.63
2023-02-13T00:46:49.781Z,101189.75
2023-02-13T00:49:17.027Z,101187.28
2023-02-13T00:51:43.591Z,101188.28
2023-02-13T00:54:10.175Z,101188.34
2023-02-13T00:56:36.848Z,101187.44
2023-02-13T00:59:03.517Z,101189.84
2023-02-13T01:01:30.142Z,101186.22
2023-02-13T01:03:57.308Z,101186.19
2023-02-13T01:06:23.952Z,101181.84
2023-02-13T01:08:50.523Z,101185.66
2023-02-13T01:11:18.964Z,101182.28
2023-02-13T01:13:46.307Z,101189.25
2023-02-13T01:16:13.158Z,101189.31
2023-02-13T01:18:39.930Z,101191.88
2023-02-13T01:21:09.194Z,101187.22
2023-02-13T01:23:39.181Z,101189.94
2023-02-13T01:26:07.721Z,101187.16
2023-02-13T01:28:35.157Z,101185.59
2023-02-13T01:31:02.809Z,101182.84
2023-02-13T01:33:30.361Z,101181.25
2023-02-13T01:35:56.978Z,101181.16
2023-02-13T01:38:23.624Z,101179.47
2023-02-13T01:40:52.999Z,101173.31
2023-02-13T01:43:23.392Z,101171.72
2023-02-13T01:45:54.832Z,101167.28
2023-02-13T01:48:25.140Z,101174.25
2023-02-13T01:51:17.374Z,101170.00
2023-02-13T01:53:49.860Z,101174.31
2023-02-13T01:56:25.512Z,101177.75
2023-02-13T01:58:57.402Z,101181.22
2023-02-13T02:01:26.108Z,101174.91
2023-02-13T02:04:04.846Z,101170.00
2023-02-13T02:06:38.308Z,101176.03
2023-02-13T02:09:16.010Z,101165.53
2023-02-13T02:11:51.340Z,101171.69
2023-02-13T02:14:19.062Z,101163.00
2023-02-13T02:16:46.546Z,101158.63
2023-02-13T02:19:26.487Z,101162.03
2023-02-13T02:22:30.323Z,101154.22
2023-02-13T02:25:18.096Z,101164.59
2023-02-13T02:27:54.011Z,101162.09
2023-02-13T02:30:24.039Z,101155.19
2023-02-13T02:33:17.056Z,101159.47
2023-02-13T02:35:51.487Z,101159.50
2023-02-13T02:38:47.611Z,101162.69
2023-02-13T02:41:43.667Z,101158.31
2023-02-13T02:44:25.466Z,101155.63
2023-02-13T02:47:23.450Z,101158.06
2023-02-13T02:50:03.256Z,101154.63
2023-02-13T02:52:54.510Z,101153.84
2023-02-13T02:55:46.201Z,101159.22
2023-02-13T02:58:51.795Z,101152.38
2023-02-13T03:01:43.709Z,101156.38
2023-02-13T03:04:39.414Z,101155.47
2023-02-13T03:07:08.654Z,101162.41
2023-02-13T03:10:05.425Z,101163.88
2023-02-13T03:12:57.660Z,101164.66
2023-02-13T03:15:26.422Z,101166.31
2023-02-13T03:18:12.581Z,101157.81
2023-02-13T03:21:17.727Z,101164.50
2023-02-13T03:24:00.181Z,101166.19
2023-02-13T03:26:50.344Z,101158.97
2023-02-13T03:29:45.026Z,101166.66
2023-02-13T03:32:38.934Z,101168.81
2023-02-13T03:36:05.774Z,101164.34
2023-02-13T03:38:32.268Z,101169.66
2023-02-13T03:41:20.055Z,101161.16
2023-02-13T03:44:11.158Z,101169.91
2023-02-13T03:46:42.849Z,101170.75
2023-02-13T03:49:35.602Z,101178.50
2023-02-13T03:52:18.726Z,101184.69
2023-02-13T03:55:10.326Z,101184.78
2023-02-13T03:57:59.130Z,101181.19
2023-02-13T04:00:33.377Z,101180.34
2023-02-13T04:03:08.253Z,101177.59
2023-02-13T04:05:44.409Z,101179.50
2023-02-13T04:08:11.879Z,101187.59
2023-02-13T04:10:49.086Z,101180.47
2023-02-13T04:13:30.068Z,101178.22
2023-02-13T04:16:04.313Z,101178.28
2023-02-13T04:18:33.521Z,101180.16
2023-02-13T04:21:07.772Z,101173.88
2023-02-13T04:23:36.052Z,101186.22
2023-02-13T04:26:08.059Z,101178.50
2023-02-13T04:28:34.830Z,101179.16
2023-02-13T04:31:01.927Z,101181.84
2023-02-13T04:33:28.827Z,101186.69
2023-02-13T04:35:55.427Z,101178.31
2023-02-13T04:38:21.927Z,101188.56
2023-02-13T04:40:48.517Z,101186.91
2023-02-13T04:43:15.109Z,101180.63
2023-02-13T04:45:41.700Z,101176.41
2023-02-13T04:48:09.087Z,101176.75
2023-02-13T04:50:35.572Z,101182.41
2023-02-13T04:53:02.063Z,101186.63
2023-02-13T04:55:28.994Z,101182.91
2023-02-13T04:57:56.663Z,101181.97
2023-02-13T05:00:25.702Z,101179.22
2023-02-13T05:02:52.690Z,101182.00
2023-02-13T05:05:20.301Z,101181.09
2023-02-13T05:07:47.163Z,101186.72
2023-02-13T05:10:13.901Z,101183.03
2023-02-13T05:12:40.833Z,101177.81
2023-02-13T05:15:07.981Z,101171.94
2023-02-13T05:17:34.531Z,101176.69
2023-02-13T05:20:01.148Z,101168.00
2023-02-13T05:22:46.374Z,101174.03
2023-02-13T05:25:13.171Z,101175.66
2023-02-13T05:27:39.859Z,101171.25
2023-02-13T05:30:07.221Z,101171.34
2023-02-13T05:32:33.904Z,101171.25
2023-02-13T05:35:02.110Z,101174.75
2023-02-13T05:37:30.644Z,101182.41
2023-02-13T05:39:57.184Z,101183.28
2023-02-13T05:42:23.742Z,101176.66
2023-02-13T05:44:50.805Z,101182.25
2023-02-13T05:47:17.535Z,101182.91
2023-02-13T05:49:44.040Z,101187.47
2023-02-13T05:52:10.692Z,101195.34
2023-02-13T05:54:38.584Z,101195.03
2023-02-13T05:57:05.278Z,101195.88
2023-02-13T05:59:31.922Z,101193.06
2023-02-13T06:01:58.416Z,101193.91
2023-02-13T06:04:25.014Z,101197.41
2023-02-13T06:06:51.692Z,101196.78
2023-02-13T06:09:18.284Z,101191.81
2023-02-13T06:11:44.815Z,101190.34
2023-02-13T06:14:12.254Z,101199.56
2023-02-13T06:16:38.851Z,101196.53
2023-02-13T06:19:05.440Z,101198.09
2023-02-13T06:21:33.500Z,101203.81
2023-02-13T06:24:00.028Z,101202.97
2023-02-13T06:26:26.566Z,101206.91
2023-02-13T06:28:53.400Z,101201.84
2023-02-13T06:31:19.991Z,101198.41
2023-02-13T06:33:46.640Z,101196.78
2023-02-13T06:36:13.404Z,101196.53
2023-02-13T06:38:39.976Z,101197.63
2023-02-13T06:41:06.990Z,101203.56
2023-02-13T06:43:33.486Z,101209.16
2023-02-13T06:45:59.987Z,101206.69
2023-02-13T06:48:26.504Z,101200.25
2023-02-13T06:50:53.259Z,101202.06
2023-02-13T06:53:24.831Z,101203.13
2023-02-13T06:55:53.458Z,101205.69
2023-02-13T06:58:21.590Z,101207.59
2023-02-13T07:00:48.776Z,101211.59
2023-02-13T07:03:15.302Z,101216.53
2023-02-13T07:05:43.323Z,101204.41
2023-02-13T07:08:11.872Z,101206.25
2023-02-13T07:10:39.255Z,101212.56
2023-02-13T07:13:06.459Z,101205.31
2023-02-13T07:15:34.660Z,101210.22
2023-02-13T07:18:01.534Z,101216.88
2023-02-13T07:20:28.840Z,101211.72
2023-02-13T07:23:04.127Z,101223.94
2023-02-13T07:25:31.551Z,101218.84
2023-02-13T07:28:06.316Z,101221.97
2023-02-13T07:30:34.530Z,101220.50
2023-02-13T07:33:05.058Z,101217.06
2023-02-13T07:35:32.085Z,101228.06
2023-02-13T07:38:00.443Z,101226.19
2023-02-13T07:40:27.199Z,101230.94
2023-02-13T07:42:53.837Z,101230.13
2023-02-13T07:45:20.561Z,101231.88
2023-02-13T07:47:47.055Z,101228.66
2023-02-13T07:50:14.135Z,101223.19
2023-02-13T07:52:40.698Z,101227.84
2023-02-13T07:55:07.837Z,101228.78
2023-02-13T07:57:34.484Z,101229.94
2023-02-13T08:00:01.062Z,101230.19
2023-02-13T08:02:27.679Z,101226.03
2023-02-13T08:04:54.198Z,101225.13
2023-02-13T08:07:20.749Z,101225.00
2023-02-13T08:10:05.859Z,101222.09
2023-02-13T08:12:35.932Z,101225.84
2023-02-13T08:15:02.898Z,101224.38
2023-02-13T08:17:29.562Z,101230.19
2023-02-13T08:19:56.165Z,101230.88
2023-02-13T08:22:22.661Z,101232.38
2023-02-13T08:24:49.249Z,101233.50
2023-02-13T08:27:16.063Z,101236.13
2023-02-13T08:29:42.655Z,101233.09
2023-02-13T08:32:09.779Z,101234.78
2023-02-13T08:34:36.590Z,101233.16
2023-02-13T08:37:03.615Z,101236.13
2023-02-13T08:39:30.125Z,101239.75
2023-02-13T08:41:56.713Z,101234.59
2023-02-13T08:44:23.269Z,101239.72
2023-02-13T08:46:49.824Z,101234.91
2023-02-13T08:49:16.403Z,101232.91
2023-02-13T08:51:43.045Z,101230.69
2023-02-13T08:54:09.550Z,101230.78
2023-02-13T08:56:36.142Z,101230.56
2023-02-13T08:59:02.806Z,101240.91
2023-02-13T09:01:29.514Z,101232.28
2023-02-13T09:03:56.047Z,101239.34
2023-02-13T09:06:23.096Z,101239.25
2023-02-13T09:08:49.735Z,101230.78
2023-02-13T09:11:16.283Z,101226.78
2023-02-13T09:13:43.085Z,101231.78
2023-02-13T09:16:11.275Z,101235.44
2023-02-13T09:18:37.786Z,101230.28
2023-02-13T09:21:10.945Z,101226.72
2023-02-13T09:23:40.138Z,101237.34
2023-02-13T09:26:10.007Z,101228.16
2023-02-13T09:28:37.446Z,101227.28
2023-02-13T09:31:16.585Z,101229.09
2023-02-13T09:33:44.718Z,101222.00
2023-02-13T09:36:19.217Z,101235.28
2023-02-13T09:38:47.724Z,101225.91
2023-02-13T09:41:19.969Z,101223.22
2023-02-13T09:43:59.226Z,101229.47
2023-02-13T09:46:33.698Z,101230.31
2023-02-13T09:49:05.668Z,101222.66
2023-02-13T09:51:32.365Z,101228.69
2023-02-13T09:54:05.327Z,101223.84
2023-02-13T09:56:49.992Z,101229.91
2023-02-13T09:59:57.103Z,101225.63
2023-02-13T10:02:42.524Z,101227.25
2023-02-13T10:05:32.969Z,101232.78
2023-02-13T10:08:34.089Z,101228.31
2023-02-13T10:11:38.433Z,101231.91
2023-02-13T10:14:31.726Z,101226.63
2023-02-13T10:17:05.596Z,101220.63
2023-02-13T10:19:41.547Z,101226.69
2023-02-13T10:22:38.668Z,101225.03
2023-02-13T10:25:13.441Z,101222.38
2023-02-13T10:28:10.961Z,101214.63
2023-02-13T10:31:12.104Z,101218.97
2023-02-13T10:33:51.343Z,101214.75
2023-02-13T10:36:30.605Z,101215.63
2023-02-13T10:39:02.335Z,101212.13
2023-02-13T10:41:47.736Z,101211.25
2023-02-13T10:44:26.432Z,101208.84
2023-02-13T10:47:15.038Z,101207.13
2023-02-13T10:50:14.024Z,101196.59
2023-02-13T10:52:52.432Z,101203.56
2023-02-13T10:55:34.936Z,101197.53
2023-02-13T10:58:09.746Z,101194.97
2023-02-13T11:01:09.714Z,101188.75
2023-02-13T11:03:36.220Z,101198.47
2023-02-13T11:06:08.100Z,101186.25
2023-02-13T11:08:43.500Z,101181.94
2023-02-13T11:11:30.385Z,101176.72
2023-02-13T11:14:31.695Z,101177.59
2023-02-13T11:17:07.498Z,101168.94
2023-02-13T11:19:40.191Z,101168.00
2023-02-13T11:22:16.024Z,101169.81
2023-02-13T11:24:52.486Z,101172.44
2023-02-13T11:27:26.839Z,101166.34
2023-02-13T11:29:56.842Z,101161.06
2023-02-13T11:32:26.174Z,101161.09
2023-02-13T11:34:54.801Z,101162.88
2023-02-13T11:37:25.391Z,101168.09
2023-02-13T11:39:55.197Z,101159.38
2023-02-13T11:42:29.181Z,101160.25
2023-02-13T11:45:08.001Z,101158.50
2023-02-13T11:47:41.090Z,101153.25
2023-02-13T11:50:20.490Z,101159.38
2023-02-13T11:53:09.432Z,101155.00
2023-02-13T11:55:42.530Z,101162.88
2023-02-13T11:58:12.160Z,101160.25
2023-02-13T12:00:41.450Z,101152.38
2023-02-13T12:03:29.524Z,101155.00
2023-02-13T12:06:04.943Z,101149.75
2023-02-13T12:08:34.084Z,101150.63
2023-02-13T12:11:03.237Z,101151.53
2023-02-13T12:13:35.525Z,101144.53
2023-02-13T12:16:06.794Z,101135.78
2023-02-13T12:18:38.520Z,101137.53
2023-02-13T12:21:12.554Z,101134.06
2023-02-13T12:23:57.834Z,101134.94
2023-02-13T12:26:40.572Z,101135.81
2023-02-13T12:29:19.740Z,101137.53
2023-02-13T12:32:40.739Z,101137.50
2023-02-13T12:35:42.442Z,101126.19
2023-02-13T12:38:14.864Z,101126.16
2023-02-13T12:40:58.641Z,101122.63
2023-02-13T12:43:59.659Z,101115.66
2023-02-13T12:46:34.898Z,101120.03
2023-02-13T12:49:39.340Z,101119.16
2023-02-13T12:52:24.655Z,101120.06
2023-02-13T12:55:15.908Z,101110.44
2023-02-13T12:58:15.852Z,101113.91
2023-02-13T13:01:05.540Z,101113.09
2023-02-13T13:04:04.264Z,101118.31
2023-02-13T13:07:10.227Z,101107.78
2023-02-13T13:10:03.999Z,101106.91
2023-02-13T13:12:43.625Z,101103.44
2023-02-13T13:15:38.036Z,101098.16
2023-02-13T13:18:19.305Z,101096.44
2023-02-13T13:21:10.806Z,101096.44
2023-02-13T13:24:00.532Z,101098.25
2023-02-13T13:26:38.725Z,101092.13
2023-02-13T13:29:28.795Z,101094.75
2023-02-13T13:32:00.894Z,101094.72
2023-02-13T13:34:28.162Z,101087.72
2023-02-13T13:37:12.878Z,101092.13
2023-02-13T13:40:14.927Z,101090.28
2023-02-13T13:43:00.285Z,101085.97
2023-02-13T13:46:01.691Z,101080.75
2023-02-13T13:48:58.151Z,101086.00
2023-02-13T13:51:25.273Z,101091.25
2023-02-13T13:54:01.460Z,101086.91
2023-02-13T13:56:54.181Z,101079.03
2023-02-13T13:59:51.446Z,101074.72
2023-02-13T14:02:18.090Z,101079.03
2023-02-13T14:05:01.516Z,101074.72
2023-02-13T14:07:35.337Z,101074.72
2023-02-13T14:10:01.932Z,101082.56
2023-02-13T14:12:28.409Z,101077.34
2023-02-13T14:14:56.486Z,101076.47
2023-02-13T14:17:45.272Z,101075.59
2023-02-13T14:20:31.791Z,101079.09
2023-02-13T14:23:08.215Z,101070.34
2023-02-13T14:25:34.862Z,101072.13
2023-02-13T14:28:04.767Z,101072.97
2023-02-13T14:30:35.592Z,101073.84
2023-02-13T14:33:24.424Z,101072.91
2023-02-13T14:36:19.656Z,101073.81
2023-02-13T14:38:56.497Z,101066.81
2023-02-13T14:41:46.203Z,101069.44
2023-02-13T14:44:19.985Z,101072.88
2023-02-13T14:46:49.477Z,101070.28
2023-02-13T14:49:23.179Z,101062.41
2023-02-13T14:51:59.454Z,101062.41
2023-02-13T14:54:43.564Z,101064.16
2023-02-13T14:57:14.731Z,101057.13
2023-02-13T14:59:47.575Z,101059.75
2023-02-13T15:02:21.867Z,101061.41
2023-02-13T15:05:07.184Z,101054.50
2023-02-13T15:07:38.128Z,101053.59
2023-02-13T15:10:15.285Z,101050.94
2023-02-13T15:12:42.018Z,101051.84
2023-02-13T15:15:24.814Z,101049.09
2023-02-13T15:17:56.131Z,101047.34
2023-02-13T15:20:32.977Z,101039.53
2023-02-13T15:23:00.022Z,101043.88
2023-02-13T15:25:35.251Z,101042.88
2023-02-13T15:28:04.825Z,101042.91
2023-02-13T15:30:37.175Z,101042.00
2023-02-13T15:33:16.337Z,101041.16
2023-02-13T15:35:43.250Z,101038.50
2023-02-13T15:38:28.064Z,101043.78
2023-02-13T15:41:08.844Z,101053.19
2023-02-13T15:43:39.448Z,101047.16
2023-02-13T15:46:18.815Z,101049.53
2023-02-13T15:48:46.544Z,101053.16
2023-02-13T15:51:28.568Z,101049.53
2023-02-13T15:53:56.860Z,101051.25
2023-02-13T15:56:23.861Z,101060.03
2023-02-13T15:58:52.858Z,101059.06
2023-02-13T16:01:19.694Z,101056.47
2023-02-13T16:03:51.759Z,101055.59
2023-02-13T16:06:20.895Z,101060.56
2023-02-13T16:08:58.592Z,101063.28
2023-02-13T16:11:37.618Z,101064.94
2023-02-13T16:14:26.690Z,101062.31
2023-02-13T16:17:06.998Z,101068.31
2023-02-13T16:19:52.601Z,101068.41
2023-02-13T16:22:34.270Z,101069.13
2023-02-13T16:25:04.485Z,101065.66
2023-02-13T16:27:31.379Z,101061.19
2023-02-13T16:30:01.285Z,101064.50
2023-02-13T16:32:31.361Z,101065.25
2023-02-13T16:35:18.037Z,101070.47
2023-02-13T16:37:52.152Z,101071.22
2023-02-13T16:40:33.655Z,101075.59
2023-02-13T16:43:38.007Z,101073.69
2023-02-13T16:46:19.882Z,101081.56
2023-02-13T16:48:46.437Z,101078.88
2023-02-13T16:51:13.775Z,101074.25
2023-02-13T16:53:40.816Z,101074.41
2023-02-13T16:56:10.930Z,101079.59
2023-02-13T16:58:37.584Z,101081.22
2023-02-13T17:01:05.307Z,101079.31
2023-02-13T17:03:33.011Z,101077.63
2023-02-13T17:06:03.366Z,101085.41
2023-02-13T17:08:33.188Z,101080.16
2023-02-13T17:11:08.187Z,101094.84
2023-02-13T17:13:34.997Z,101100.91
2023-02-13T17:16:01.647Z,101104.91
2023-02-13T17:18:28.280Z,101107.72
2023-02-13T17:20:55.032Z,101105.03
2023-02-13T17:23:24.503Z,101103.16
2023-02-13T17:25:53.703Z,101114.22
2023-02-13T17:28:26.277Z,101116.81
2023-02-13T17:30:56.682Z,101120.06
2023-02-13T17:33:26.424Z,101121.75
2023-02-13T17:35:53.772Z,101111.25
2023-02-13T17:38:20.616Z,101115.50
2023-02-13T17:40:47.453Z,101123.25
2023-02-13T17:43:16.252Z,101121.47
2023-02-13T17:45:43.866Z,101113.66
2023-02-13T17:48:10.530Z,101117.84
2023-02-13T17:50:38.152Z,101120.38
2023-02-13T17:53:07.333Z,101124.47
2023-02-13T17:55:34.868Z,101120.97
2023-02-13T17:58:02.213Z,101124.09
2023-02-13T18:00:32.507Z,101129.34
2023-02-13T18:03:00.853Z,101125.81
2023-02-13T18:05:28.305Z,101121.09
2023-02-13T18:07:55.463Z,101124.47
2023-02-13T18:10:26.197Z,101111.50
2023-02-13T18:12:54.643Z,101114.00
2023-02-13T18:15:21.477Z,101111.50
2023-02-13T18:17:48.237Z,101104.50
2023-02-13T18:20:18.439Z,101107.78
2023-02-13T18:22:51.856Z,101113.91
2023-02-13T18:25:19.843Z,101113.22
2023-02-13T18:27:47.137Z,101105.34
2023-02-13T18:30:18.158Z,101102.72
2023-02-13T18:32:44.796Z,101095.78
2023-02-13T18:35:11.849Z,101099.09
2023-02-13T18:37:39.318Z,101094.97
2023-02-13T18:40:09.957Z,101096.69
2023-02-13T18:42:36.515Z,101093.47
2023-02-13T18:45:03.753Z,101091.00
2023-02-13T18:47:30.676Z,101093.63
2023-02-13T18:49:57.653Z,101088.44
2023-02-13T18:52:24.322Z,101090.69
2023-02-13T18:54:51.531Z,101087.19
2023-02-13T18:57:18.139Z,101094.91
2023-02-13T18:59:44.625Z,101099.34
2023-02-13T19:02:11.263Z,101097.50
2023-02-13T19:04:38.286Z,101103.34
2023-02-13T19:07:05.080Z,101101.63
2023-02-13T19:09:31.669Z,101094.75
2023-02-13T19:11:58.349Z,101092.09
2023-02-13T19:14:25.920Z,101096.50
2023-02-13T19:16:53.358Z,101089.59
2023-02-13T19:19:20.014Z,101087.97
2023-02-13T19:21:46.845Z,101086.22
2023-02-13T19:24:15.518Z,101090.53
2023-02-13T19:26:42.756Z,101089.34
2023-02-13T19:29:09.392Z,101092.88
2023-02-13T19:31:36.506Z,101097.28
2023-02-13T19:34:05.593Z,101095.38
2023-02-13T19:36:32.510Z,101097.13
2023-02-13T19:39:03.432Z,101088.75
2023-02-13T19:41:30.436Z,101083.94
2023-02-13T19:43:57.277Z,101076.25
2023-02-13T19:46:26.808Z,101080.56
2023-02-13T19:48:54.302Z,101080.53
2023-02-13T19:51:24.278Z,101088.28
2023-02-13T19:54:12.834Z,101092.22
2023-02-13T19:56:40.466Z,101089.75
2023-02-13T19:59:09.783Z,101088.13
2023-02-13T20:01:36.413Z,101097.66
2023-02-13T20:04:03.093Z,101093.25
2023-02-13T20:06:35.869Z,101101.97
2023-02-13T20:09:06.990Z,101097.66
2023-02-13T20:11:33.689Z,101097.72
2023-02-13T20:14:05.258Z,101096.78
2023-02-13T20:16:35.036Z,101101.97
2023-02-13T20:19:05.791Z,101096.38
2023-02-13T20:21:34.185Z,101093.69
2023-02-13T20:24:01.550Z,101095.56
2023-02-13T20:26:28.112Z,101096.28
2023-02-13T20:28:56.464Z,101096.13
2023-02-13T20:31:23.446Z,101089.47
2023-02-13T20:33:51.327Z,101096.41
2023-02-13T20:36:20.922Z,101091.50
2023-02-13T20:38:48.217Z,101091.47
2023-02-13T20:41:20.044Z,101088.06
2023-02-13T20:43:46.918Z,101094.19
2023-02-13T20:46:16.207Z,101090.84
2023-02-13T20:48:44.321Z,101102.06
2023-02-13T20:51:12.819Z,101099.56
2023-02-13T20:53:40.547Z,101102.03
2023-02-13T20:56:11.668Z,101096.03
2023-02-13T20:58:39.242Z,101092.56
2023-02-13T21:01:25.851Z,101088.59
2023-02-13T21:03:54.991Z,101092.22
2023-02-13T21:06:26.778Z,101092.06
2023-02-13T21:08:53.900Z,101091.41
2023-02-13T21:11:21.656Z,101094.94
2023-02-13T21:13:48.678Z,101090.63
2023-02-13T21:16:21.677Z,101090.53
2023-02-13T21:18:49.980Z,101090.19
2023-02-13T21:21:17.644Z,101093.63
2023-02-13T21:23:44.303Z,101098.50
2023-02-13T21:26:17.036Z,101096.75
2023-02-13T21:28:46.364Z,101089.19
2023-02-13T21:31:27.544Z,101091.38
2023-02-13T21:33:56.640Z,101088.94
2023-02-13T21:36:23.209Z,101093.97
2023-02-13T21:38:49.772Z,101092.22
2023-02-13T21:41:18.130Z,101093.75
2023-02-13T21:43:48.127Z,101091.19
2023-02-13T21:46:16.618Z,101095.34
2023-02-13T21:48:43.305Z,101085.00
2023-02-13T21:51:19.240Z,101081.50
2023-02-13T21:53:47.479Z,101080.72
2023-02-13T21:56:20.077Z,101072.94
2023-02-13T21:58:47.342Z,101068.75
2023-02-13T22:01:25.951Z,101069.66
2023-02-13T22:03:58.412Z,101085.78
2023-02-13T22:06:27.785Z,101071.00
2023-02-13T22:09:03.535Z,101077.75
2023-02-13T22:11:30.927Z,101079.34
2023-02-13T22:14:01.577Z,101073.31
2023-02-13T22:16:30.109Z,101074.97
2023-02-13T22:18:56.902Z,101063.59
2023-02-13T22:21:25.377Z,101062.44
2023-02-13T22:23:52.447Z,101058.00
2023-02-13T22:26:23.824Z,101051.13
2023-02-13T22:28:52.043Z,101057.09
2023-02-13T22:31:19.443Z,101049.44
2023-02-13T22:33:52.420Z,101042.53
2023-02-13T22:36:25.591Z,101047.69
2023-02-13T22:38:52.892Z,101052.09
2023-02-13T22:41:22.271Z,101050.22
2023-02-13T22:43:49.508Z,101056.25
2023-02-13T22:46:26.302Z,101048.53
2023-02-13T22:48:53.182Z,101046.03
2023-02-13T22:51:34.406Z,101045.69
2023-02-13T22:54:01.549Z,101056.19
2023-02-13T22:56:29.325Z,101053.63
2023-02-13T22:58:56.051Z,101060.38
2023-02-13T23:01:24.944Z,101054.84
2023-02-13T23:03:51.732Z,101063.84
2023-02-13T23:06:19.067Z,101054.41
2023-02-13T23:08:45.820Z,101065.38
2023-02-13T23:11:34.584Z,101064.25
2023-02-13T23:14:01.544Z,101063.69
2023-02-13T23:16:28.659Z,101062.19
2023-02-13T23:18:57.259Z,101057.97
2023-02-13T23:21:25.534Z,101055.16
2023-02-13T23:23:52.526Z,101059.66
2023-02-13T23:26:19.381Z,101062.19
2023-02-13T23:28:46.078Z,101057.97
2023-02-13T23:31:12.693Z,101068.31
2023-02-13T23:33:39.447Z,101062.13
2023-02-13T23:36:06.510Z,101064.09
2023-02-13T23:38:33.097Z,101064.59
2023-02-13T23:41:07.605Z,101064.81
2023-02-13T23:43:34.483Z,101064.88
2023-02-13T23:46:06.729Z,101070.50
2023-02-13T23:48:33.662Z,101066.28
2023-02-13T23:51:01.136Z,101066.47
2023-02-13T23:53:28.040Z,101065.50
2023-02-13T23:55:55.086Z,101070.25
2023-02-13T23:58:22.048Z,101060.78
